Time;durP1;ratioP1;P1;durP2;ratioP2;P2;SDS_P1;SDS_P2;PMS_P1;PMS_P2;Temp;Humidity;BMP_temperature;BMP_pressure;BME280_temperature;BME280_humidity;BME280_pressure;Samples;Min_cycle;Max_cycle;Signal;HPM_P1;HPM_P2
2024/01/06 00:02:09;;;;;;;9.32;5.63;;;;;;;;;;5092034;28;20093;-62
2024/01/06 00:04:34;;;;;;;10.07;5.30;;;;;;;;;;5092090;28;20036;-62
2024/01/06 00:07:00;;;;;;;11.48;5.57;;;;;;;;;;5090574;28;20040;-63
2024/01/06 00:09:26;;;;;;;11.07;6.05;;;;;;;;;;5092153;28;20092;-62
2024/01/06 00:11:51;;;;;;;8.52;5.05;;;;;;;;;;5091997;28;20044;-64
2024/01/06 00:14:17;;;;;;;9.77;4.90;;;;;;;;;;5073853;28;20040;-62
2024/01/06 00:16:42;;;;;;;10.00;5.13;;;;;;;;;;5091987;28;20036;-63
2024/01/06 00:19:08;;;;;;;10.43;5.22;;;;;;;;;;5090438;28;20106;-62
2024/01/06 00:21:33;;;;;;;11.82;5.18;;;;;;;;;;5090288;28;20528;-64
2024/01/06 00:23:59;;;;;;;9.63;4.60;;;;;;;;;;5091814;28;20036;-62
2024/01/06 00:26:25;;;;;;;8.90;4.60;;;;;;;;;;5091466;28;20048;-62
2024/01/06 00:28:51;;;;;;;8.27;4.72;;;;;;;;;;5091663;28;20043;-60
2024/01/06 00:31:17;;;;;;;8.48;4.65;;;;;;;;;;5091666;28;20046;-63
2024/01/06 00:33:42;;;;;;;11.23;5.82;;;;;;;;;;5090371;28;20393;-62
2024/01/06 00:36:08;;;;;;;8.82;5.07;;;;;;;;;;5091407;28;20036;-63
2024/01/06 00:38:37;;;;;;;7.28;4.40;;;;;;;;;;5091655;28;20130;-62
2024/01/06 00:41:03;;;;;;;10.68;4.60;;;;;;;;;;5091710;28;20050;-62
2024/01/06 00:43:29;;;;;;;10.60;5.15;;;;;;;;;;5089962;28;20525;-62
2024/01/06 00:45:54;;;;;;;10.20;4.97;;;;;;;;;;5091664;28;20043;-63
2024/01/06 00:48:20;;;;;;;7.00;3.92;;;;;;;;;;5091406;28;20036;-62
2024/01/06 00:50:45;;;;;;;10.48;4.72;;;;;;;;;;5091290;28;20054;-64
2024/01/06 00:53:11;;;;;;;10.55;4.68;;;;;;;;;;5091197;28;20064;-61
2024/01/06 00:55:37;;;;;;;5.78;4.55;;;;;;;;;;5091567;28;20036;-63
2024/01/06 00:58:03;;;;;;;8.98;5.28;;;;;;;;;;5095211;28;20044;-61
2024/01/06 01:00:28;;;;;;;10.02;4.50;;;;;;;;;;5095488;28;20177;-63
2024/01/06 01:02:54;;;;;;;12.07;5.25;;;;;;;;;;5095122;28;20039;-62
2024/01/06 01:05:20;;;;;;;8.23;4.65;;;;;;;;;;5095210;28;20043;-63
2024/01/06 01:07:45;;;;;;;5.60;3.40;;;;;;;;;;5095354;28;20038;-61
2024/01/06 01:10:11;;;;;;;7.35;4.40;;;;;;;;;;5095131;28;20032;-63
2024/01/06 01:12:36;;;;;;;9.95;5.18;;;;;;;;;;5095157;28;20417;-63
2024/01/06 01:15:03;;;;;;;8.20;4.10;;;;;;;;;;5093838;28;20032;-61
2024/01/06 01:17:31;;;;;;;8.48;5.30;;;;;;;;;;5095153;28;20043;-63
2024/01/06 01:19:56;;;;;;;6.10;4.18;;;;;;;;;;5095182;28;20482;-62
2024/01/06 01:22:22;;;;;;;7.30;4.57;;;;;;;;;;5094795;28;20036;-64
2024/01/06 01:24:47;;;;;;;6.90;3.92;;;;;;;;;;5093650;28;20036;-62
2024/01/06 01:27:13;;;;;;;10.68;5.30;;;;;;;;;;5094771;28;20440;-63
2024/01/06 01:29:39;;;;;;;13.32;4.63;;;;;;;;;;5093270;28;20044;-62
2024/01/06 01:32:05;;;;;;;8.00;3.58;;;;;;;;;;5094773;28;20048;-62
2024/01/06 01:34:30;;;;;;;10.93;5.28;;;;;;;;;;5094965;28;20035;-64
2024/01/06 01:36:56;;;;;;;6.88;4.18;;;;;;;;;;5094504;28;20128;-64
2024/01/06 01:39:21;;;;;;;7.95;5.05;;;;;;;;;;5094769;28;20043;-61
2024/01/06 01:41:47;;;;;;;9.20;4.95;;;;;;;;;;5094399;28;20519;-65
2024/01/06 01:44:12;;;;;;;9.38;4.35;;;;;;;;;;5094570;28;20028;-63
2024/01/06 01:46:39;;;;;;;8.30;4.38;;;;;;;;;;5094355;28;20047;-63
2024/01/06 01:49:04;;;;;;;6.95;4.10;;;;;;;;;;5094599;28;20032;-61
2024/01/06 01:51:32;;;;;;;9.57;4.38;;;;;;;;;;5092717;28;20052;-63
2024/01/06 01:53:59;;;;;;;6.63;4.45;;;;;;;;;;5094509;28;20043;-62
2024/01/06 01:56:25;;;;;;;9.15;4.55;;;;;;;;;;5094248;28;20024;-61
2024/01/06 01:58:51;;;;;;;8.52;4.95;;;;;;;;;;5092766;28;20036;-62
2024/01/06 02:01:17;;;;;;;7.70;4.47;;;;;;;;;;5094206;28;20038;-63
2024/01/06 02:03:45;;;;;;;23.20;6.10;;;;;;;;;;5092735;28;20063;-62
2024/01/06 02:06:12;;;;;;;6.93;4.88;;;;;;;;;;5093920;28;20436;-62
2024/01/06 02:08:37;;;;;;;8.27;4.65;;;;;;;;;;5093169;28;20031;-63
2024/01/06 02:11:04;;;;;;;9.63;4.55;;;;;;;;;;5075926;28;20509;-62
2024/01/06 02:13:36;;;;;;;10.63;5.07;;;;;;;;;;5094009;28;20036;-63
2024/01/06 02:16:04;;;;;;;10.95;4.63;;;;;;;;;;5094013;28;20097;-62
2024/01/06 02:18:31;;;;;;;8.30;4.68;;;;;;;;;;5093901;28;20036;-61
2024/01/06 02:20:58;;;;;;;9.85;4.78;;;;;;;;;;5093753;28;20044;-60
2024/01/06 02:23:24;;;;;;;8.82;5.13;;;;;;;;;;5093711;28;20534;-60
2024/01/06 02:25:49;;;;;;;6.72;4.00;;;;;;;;;;5075861;28;20032;-64
2024/01/06 02:28:15;;;;;;;7.20;4.47;;;;;;;;;;5093683;28;20086;-63
2024/01/06 02:30:41;;;;;;;7.40;4.53;;;;;;;;;;5093759;28;20036;-62
2024/01/06 02:33:06;;;;;;;7.90;3.92;;;;;;;;;;5093439;28;20128;-62
2024/01/06 02:35:32;;;;;;;14.98;3.40;;;;;;;;;;5093378;28;20036;-62
2024/01/06 02:37:57;;;;;;;7.20;3.55;;;;;;;;;;5092383;28;20062;-63
2024/01/06 02:40:23;;;;;;;7.93;3.72;;;;;;;;;;5093550;28;20031;-62
2024/01/06 02:42:49;;;;;;;6.50;3.75;;;;;;;;;;5093144;28;20093;-61
2024/01/06 02:45:14;;;;;;;5.65;3.60;;;;;;;;;;5093196;28;20216;-63
2024/01/06 02:47:40;;;;;;;6.82;4.18;;;;;;;;;;5091808;28;20067;-61
2024/01/06 02:50:05;;;;;;;11.27;5.60;;;;;;;;;;5093154;28;20044;-62
2024/01/06 02:52:31;;;;;;;8.68;4.50;;;;;;;;;;5092761;28;20058;-62
2024/01/06 02:54:57;;;;;;;7.68;3.72;;;;;;;;;;5093427;28;20101;-63
2024/01/06 02:57:22;;;;;;;10.73;4.72;;;;;;;;;;5093176;28;20028;-64
2024/01/06 02:59:48;;;;;;;8.65;4.65;;;;;;;;;;5091786;28;20400;-61
2024/01/06 03:02:14;;;;;;;8.45;4.20;;;;;;;;;;5092007;28;20545;-62
2024/01/06 03:04:39;;;;;;;7.97;4.35;;;;;;;;;;5092883;28;20040;-61
2024/01/06 03:07:05;;;;;;;7.90;4.50;;;;;;;;;;5093072;28;20414;-63
2024/01/06 03:09:31;;;;;;;9.70;4.20;;;;;;;;;;5091485;28;20028;-63
2024/01/06 03:11:56;;;;;;;8.07;4.32;;;;;;;;;;5092937;28;20044;-64
2024/01/06 03:14:22;;;;;;;9.52;4.55;;;;;;;;;;5092965;28;20039;-62
2024/01/06 03:16:48;;;;;;;7.72;4.43;;;;;;;;;;5092585;28;20028;-62
2024/01/06 03:19:13;;;;;;;8.77;4.60;;;;;;;;;;5092609;28;20512;-62
2024/01/06 03:21:39;;;;;;;10.80;5.13;;;;;;;;;;5092733;28;20043;-62
2024/01/06 03:24:05;;;;;;;9.75;5.32;;;;;;;;;;5092830;28;20032;-61
2024/01/06 03:26:30;;;;;;;10.35;5.00;;;;;;;;;;5092719;28;20032;-62
2024/01/06 03:28:56;;;;;;;11.63;5.00;;;;;;;;;;5092690;28;20043;-61
2024/01/06 03:31:22;;;;;;;14.13;4.95;;;;;;;;;;5092486;28;20039;-63
2024/01/06 03:33:48;;;;;;;8.57;4.65;;;;;;;;;;5091221;28;20126;-62
2024/01/06 03:36:15;;;;;;;8.93;4.88;;;;;;;;;;5092506;28;20086;-62
2024/01/06 03:38:41;;;;;;;10.05;4.53;;;;;;;;;;5092474;28;20032;-62
2024/01/06 03:41:07;;;;;;;9.25;5.28;;;;;;;;;;5074310;28;20093;-64
2024/01/06 03:43:33;;;;;;;9.38;5.20;;;;;;;;;;5092253;28;20084;-61
2024/01/06 03:46:00;;;;;;;13.40;5.47;;;;;;;;;;5091234;28;20044;-64
2024/01/06 03:48:25;;;;;;;14.02;6.65;;;;;;;;;;5092286;28;20477;-61
2024/01/06 03:50:51;;;;;;;8.85;5.15;;;;;;;;;;5090952;28;20028;-63
2024/01/06 03:53:17;;;;;;;12.30;4.97;;;;;;;;;;5091699;28;20604;-61
2024/01/06 03:55:43;;;;;;;7.95;5.05;;;;;;;;;;5091976;28;20119;-63
2024/01/06 03:58:08;;;;;;;8.40;5.05;;;;;;;;;;5091845;28;20070;-62
2024/01/06 04:00:34;;;;;;;12.90;5.93;;;;;;;;;;5091996;28;20043;-60
2024/01/06 04:03:00;;;;;;;12.45;5.60;;;;;;;;;;5073769;28;20044;-61
2024/01/06 04:05:25;;;;;;;16.75;5.20;;;;;;;;;;5092051;28;20036;-63
2024/01/06 04:07:51;;;;;;;16.77;6.47;;;;;;;;;;5090426;28;20453;-61
2024/01/06 04:10:16;;;;;;;12.70;5.78;;;;;;;;;;5091845;28;20077;-63
2024/01/06 04:12:42;;;;;;;10.55;5.63;;;;;;;;;;5091520;28;20047;-60
2024/01/06 04:15:08;;;;;;;9.45;4.65;;;;;;;;;;5091661;28;20039;-62
2024/01/06 04:17:33;;;;;;;9.38;5.72;;;;;;;;;;5092064;28;20119;-63
2024/01/06 04:19:59;;;;;;;12.35;5.57;;;;;;;;;;5092052;28;20389;-61
2024/01/06 04:22:25;;;;;;;14.95;6.93;;;;;;;;;;5091869;28;20578;-63
2024/01/06 04:24:50;;;;;;;15.90;6.15;;;;;;;;;;5090508;28;20033;-63
2024/01/06 04:27:16;;;;;;;12.68;6.00;;;;;;;;;;5091515;28;20535;-62
2024/01/06 04:29:41;;;;;;;9.13;5.38;;;;;;;;;;5090274;28;20425;-62
2024/01/06 04:32:07;;;;;;;13.00;6.22;;;;;;;;;;5092640;28;20056;-61
2024/01/06 04:34:33;;;;;;;12.88;5.55;;;;;;;;;;5094569;28;20036;-62
2024/01/06 04:36:59;;;;;;;10.93;5.65;;;;;;;;;;5077529;28;20036;-63
2024/01/06 04:39:24;;;;;;;11.82;5.88;;;;;;;;;;5095918;28;20040;-62
2024/01/06 04:41:50;;;;;;;11.48;5.57;;;;;;;;;;5094374;28;20126;-62
2024/01/06 04:44:16;;;;;;;9.98;5.05;;;;;;;;;;5095801;28;20389;-60
2024/01/06 04:46:41;;;;;;;15.25;6.88;;;;;;;;;;5095871;28;20097;-64
2024/01/06 04:49:07;;;;;;;9.82;5.57;;;;;;;;;;5095669;28;20181;-62
2024/01/06 04:51:33;;;;;;;16.77;7.32;;;;;;;;;;5095387;28;20051;-62
2024/01/06 04:53:58;;;;;;;14.00;6.43;;;;;;;;;;5095412;28;20036;-62
2024/01/06 04:56:24;;;;;;;18.25;7.25;;;;;;;;;;5095607;28;20411;-62
2024/01/06 04:58:49;;;;;;;13.40;6.80;;;;;;;;;;5094082;28;20032;-61
2024/01/06 05:01:15;;;;;;;9.50;5.90;;;;;;;;;;5095183;28;20044;-62
2024/01/06 05:03:41;;;;;;;11.38;6.35;;;;;;;;;;5095307;28;20473;-62
2024/01/06 05:06:06;;;;;;;13.43;5.43;;;;;;;;;;5095351;28;20044;-64
2024/01/06 05:08:32;;;;;;;14.18;6.03;;;;;;;;;;5095206;28;20028;-62
2024/01/06 05:10:58;;;;;;;14.25;7.47;;;;;;;;;;5095559;28;20040;-64
2024/01/06 05:13:24;;;;;;;12.38;6.53;;;;;;;;;;5093737;28;20036;-61
2024/01/06 05:15:50;;;;;;;11.23;6.20;;;;;;;;;;5094993;28;20089;-63
2024/01/06 05:18:15;;;;;;;9.73;6.38;;;;;;;;;;5094890;28;20398;-62
2024/01/06 05:20:41;;;;;;;14.38;7.25;;;;;;;;;;5095104;28;20064;-65
2024/01/06 05:23:07;;;;;;;14.52;7.20;;;;;;;;;;5093480;28;20123;-62
2024/01/06 05:25:32;;;;;;;16.00;6.75;;;;;;;;;;5094953;28;20028;-62
2024/01/06 05:27:58;;;;;;;25.08;7.70;;;;;;;;;;5094778;28;20036;-62
2024/01/06 05:30:24;;;;;;;14.77;7.10;;;;;;;;;;5094994;28;20497;-64
2024/01/06 05:32:49;;;;;;;15.73;7.00;;;;;;;;;;5093547;28;20044;-62
2024/01/06 05:35:18;;;;;;;12.63;6.63;;;;;;;;;;5094878;28;20032;-64
2024/01/06 05:37:43;;;;;;;14.38;7.40;;;;;;;;;;5094700;28;20070;-62
2024/01/06 05:40:09;;;;;;;15.63;7.95;;;;;;;;;;5094393;28;20071;-61
2024/01/06 05:42:35;;;;;;;15.15;7.53;;;;;;;;;;5093119;28;20039;-61
2024/01/06 05:45:00;;;;;;;17.95;7.45;;;;;;;;;;5094675;28;20600;-62
2024/01/06 05:47:26;;;;;;;15.13;6.70;;;;;;;;;;5094293;28;20032;-63
2024/01/06 05:49:51;;;;;;;18.48;7.28;;;;;;;;;;5093271;28;20116;-62
2024/01/06 05:52:17;;;;;;;10.52;5.93;;;;;;;;;;5094081;28;20052;-61
2024/01/06 05:54:43;;;;;;;14.88;7.15;;;;;;;;;;5094776;28;20081;-61
2024/01/06 05:57:08;;;;;;;14.07;7.53;;;;;;;;;;5092891;28;20036;-64
2024/01/06 05:59:34;;;;;;;22.38;8.38;;;;;;;;;;5092874;28;20032;-62
2024/01/06 06:02:00;;;;;;;16.35;8.05;;;;;;;;;;5092863;28;20036;-63
2024/01/06 06:04:25;;;;;;;16.90;6.10;;;;;;;;;;5093840;28;20046;-62
2024/01/06 06:06:51;;;;;;;13.18;7.60;;;;;;;;;;5094245;28;20032;-63
2024/01/06 06:09:17;;;;;;;14.20;6.97;;;;;;;;;;5094192;28;20091;-62
2024/01/06 06:11:43;;;;;;;12.57;6.68;;;;;;;;;;5094147;28;20093;-64
2024/01/06 06:14:09;;;;;;;15.32;7.53;;;;;;;;;;5094061;28;20481;-62
2024/01/06 06:16:34;;;;;;;15.77;6.47;;;;;;;;;;5092965;28;20119;-63
2024/01/06 06:19:00;;;;;;;13.70;8.05;;;;;;;;;;5094010;28;20040;-62
2024/01/06 06:21:25;;;;;;;15.30;7.05;;;;;;;;;;5093714;28;20048;-64
2024/01/06 06:23:51;;;;;;;15.63;7.65;;;;;;;;;;5093877;28;20028;-61
2024/01/06 06:26:17;;;;;;;17.85;7.68;;;;;;;;;;5093801;28;20055;-61
2024/01/06 06:28:43;;;;;;;16.27;7.65;;;;;;;;;;5093749;28;20115;-62
2024/01/06 06:31:08;;;;;;;12.77;7.80;;;;;;;;;;5093745;28;20505;-63
2024/01/06 06:33:34;;;;;;;12.48;6.97;;;;;;;;;;5092152;28;20052;-62
2024/01/06 06:36:00;;;;;;;13.70;7.05;;;;;;;;;;5091922;28;20414;-60
2024/01/06 06:38:26;;;;;;;16.88;7.15;;;;;;;;;;5092176;28;20043;-61
2024/01/06 06:40:51;;;;;;;12.77;7.50;;;;;;;;;;5092035;28;20413;-62
2024/01/06 06:43:17;;;;;;;13.65;7.22;;;;;;;;;;5093305;28;20038;-62
2024/01/06 06:45:43;;;;;;;17.13;7.85;;;;;;;;;;5091963;28;20126;-62
2024/01/06 06:48:08;;;;;;;16.35;7.00;;;;;;;;;;5075133;28;20028;-62
2024/01/06 06:50:34;;;;;;;13.43;7.43;;;;;;;;;;5093289;28;20047;-62
2024/01/06 06:53:00;;;;;;;15.85;7.35;;;;;;;;;;5093020;28;20120;-61
2024/01/06 06:55:27;;;;;;;19.35;8.38;;;;;;;;;;5091434;28;20085;-62
2024/01/06 06:57:53;;;;;;;22.00;8.93;;;;;;;;;;5092898;28;20451;-61
2024/01/06 07:00:18;;;;;;;15.13;7.93;;;;;;;;;;5093267;28;20452;-64
2024/01/06 07:02:44;;;;;;;16.63;7.30;;;;;;;;;;5092895;28;20043;-63
2024/01/06 07:05:10;;;;;;;16.42;8.82;;;;;;;;;;5091884;28;20036;-62
2024/01/06 07:07:35;;;;;;;12.32;7.70;;;;;;;;;;5093205;28;20524;-63
2024/01/06 07:10:03;;;;;;;13.25;7.25;;;;;;;;;;5093241;28;20417;-62
2024/01/06 07:12:29;;;;;;;20.00;8.73;;;;;;;;;;5092895;28;20093;-63
2024/01/06 07:14:55;;;;;;;17.77;8.77;;;;;;;;;;5093149;28;20031;-62
2024/01/06 07:17:21;;;;;;;13.57;7.15;;;;;;;;;;5093064;28;20048;-65
2024/01/06 07:19:46;;;;;;;16.10;7.60;;;;;;;;;;5093021;28;20035;-62
2024/01/06 07:22:12;;;;;;;18.88;8.98;;;;;;;;;;5092782;28;20036;-64
2024/01/06 07:24:37;;;;;;;15.93;8.20;;;;;;;;;;5092898;28;20107;-62
2024/01/06 07:27:04;;;;;;;13.50;7.50;;;;;;;;;;5092856;28;20043;-62
2024/01/06 07:29:29;;;;;;;15.50;7.80;;;;;;;;;;5074394;28;20035;-62
2024/01/06 07:31:55;;;;;;;17.95;8.57;;;;;;;;;;5092573;28;20059;-64
2024/01/06 07:34:21;;;;;;;21.88;8.52;;;;;;;;;;5092544;28;20121;-61
2024/01/06 07:36:46;;;;;;;14.65;7.85;;;;;;;;;;5092518;28;20126;-61
2024/01/06 07:39:12;;;;;;;15.48;7.75;;;;;;;;;;5090999;28;20035;-61
2024/01/06 07:41:37;;;;;;;16.08;7.85;;;;;;;;;;5091064;28;20394;-63
2024/01/06 07:44:03;;;;;;;16.58;8.30;;;;;;;;;;5090990;28;20119;-62
2024/01/06 07:46:29;;;;;;;16.63;8.38;;;;;;;;;;5092098;28;20036;-63
2024/01/06 07:48:55;;;;;;;18.42;8.63;;;;;;;;;;5092089;28;20197;-63
2024/01/06 07:51:21;;;;;;;17.27;7.80;;;;;;;;;;5091648;28;20123;-63
2024/01/06 07:53:46;;;;;;;16.88;8.02;;;;;;;;;;5090773;28;20077;-62
2024/01/06 07:56:12;;;;;;;15.13;7.82;;;;;;;;;;5092167;28;20527;-64
2024/01/06 07:58:37;;;;;;;17.65;8.25;;;;;;;;;;5092001;28;20036;-62
2024/01/06 08:01:03;;;;;;;17.27;7.93;;;;;;;;;;5091961;28;20104;-64
2024/01/06 08:03:29;;;;;;;17.42;7.97;;;;;;;;;;5091995;28;20043;-64
2024/01/06 08:05:55;;;;;;;17.75;8.15;;;;;;;;;;5091147;28;20456;-64
2024/01/06 08:08:20;;;;;;;20.73;9.18;;;;;;;;;;5091864;28;20170;-63
2024/01/06 08:10:46;;;;;;;18.63;9.40;;;;;;;;;;5090497;28;20085;-67
2024/01/06 08:13:12;;;;;;;16.52;8.32;;;;;;;;;;5091809;28;20040;-62
2024/01/06 08:15:38;;;;;;;16.45;8.25;;;;;;;;;;5090608;28;20039;-64
2024/01/06 08:18:04;;;;;;;15.63;8.25;;;;;;;;;;5073545;28;20044;-62
2024/01/06 08:20:29;;;;;;;19.20;9.20;;;;;;;;;;5091856;28;20062;-64
2024/01/06 08:22:55;;;;;;;16.42;9.07;;;;;;;;;;5091434;28;20387;-62
2024/01/06 08:25:20;;;;;;;24.48;10.00;;;;;;;;;;5090533;28;20036;-65
2024/01/06 08:27:46;;;;;;;21.85;9.55;;;;;;;;;;5091554;28;20074;-62
2024/01/06 08:30:12;;;;;;;27.50;10.20;;;;;;;;;;5091448;28;20040;-64
2024/01/06 08:32:38;;;;;;;21.05;9.25;;;;;;;;;;5091402;28;20090;-64
2024/01/06 08:35:03;;;;;;;22.27;10.25;;;;;;;;;;5091245;28;20452;-63
2024/01/06 08:37:30;;;;;;;21.88;9.60;;;;;;;;;;5089948;28;20029;-63
2024/01/06 08:39:56;;;;;;;80.47;38.67;;;;;;;;;;5091585;28;20036;-63
2024/01/06 08:42:21;;;;;;;32.47;16.10;;;;;;;;;;5091220;28;20038;-64
2024/01/06 08:44:47;;;;;;;19.50;11.65;;;;;;;;;;5091618;28;20085;-62
2024/01/06 08:47:13;;;;;;;19.85;10.95;;;;;;;;;;5091147;28;20032;-63
2024/01/06 08:49:39;;;;;;;21.55;13.52;;;;;;;;;;5091130;28;20036;-62
2024/01/06 08:52:04;;;;;;;27.85;14.55;;;;;;;;;;5093774;28;20047;-62
2024/01/06 08:54:31;;;;;;;23.08;9.55;;;;;;;;;;5091491;28;20047;-62
2024/01/06 08:56:56;;;;;;;19.35;9.70;;;;;;;;;;5091422;28;20036;-64
2024/01/06 08:59:22;;;;;;;26.30;10.35;;;;;;;;;;5089881;28;20024;-63
2024/01/06 09:01:48;;;;;;;21.05;10.50;;;;;;;;;;5091250;28;20062;-63
2024/01/06 09:04:14;;;;;;;26.58;11.02;;;;;;;;;;5091461;28;20114;-63
2024/01/06 09:06:41;;;;;;;18.05;10.45;;;;;;;;;;5089827;28;20086;-64
2024/01/06 09:09:08;;;;;;;19.17;9.55;;;;;;;;;;5089552;28;20059;-61
2024/01/06 09:11:33;;;;;;;16.75;10.00;;;;;;;;;;5091112;28;20040;-63
2024/01/06 09:13:59;;;;;;;13.65;8.65;;;;;;;;;;5091274;28;20090;-63
2024/01/06 09:16:24;;;;;;;14.65;9.13;;;;;;;;;;5090081;28;20089;-63
2024/01/06 09:18:50;;;;;;;23.83;10.77;;;;;;;;;;5093181;28;20032;-64
2024/01/06 09:21:17;;;;;;;21.23;11.15;;;;;;;;;;5094839;28;20048;-63
2024/01/06 09:23:43;;;;;;;20.30;10.38;;;;;;;;;;5093408;28;20036;-62
2024/01/06 09:26:08;;;;;;;18.00;10.55;;;;;;;;;;5094629;28;20087;-64
2024/01/06 09:28:34;;;;;;;25.08;10.45;;;;;;;;;;5093210;28;20405;-63
2024/01/06 09:31:00;;;;;;;24.20;9.90;;;;;;;;;;5094467;28;20078;-64
2024/01/06 09:33:25;;;;;;;17.20;9.23;;;;;;;;;;5094145;28;20581;-62
2024/01/06 09:35:51;;;;;;;21.00;10.93;;;;;;;;;;5094447;28;20032;-63
2024/01/06 09:38:20;;;;;;;22.92;11.68;;;;;;;;;;5093274;28;20074;-63
2024/01/06 09:40:45;;;;;;;23.20;11.65;;;;;;;;;;5094490;28;20052;-64
2024/01/06 09:43:11;;;;;;;29.80;11.60;;;;;;;;;;5094476;28;20044;-61
2024/01/06 09:45:39;;;;;;;25.20;11.27;;;;;;;;;;5094355;28;20039;-63
2024/01/06 09:48:11;;;;;;;22.30;11.48;;;;;;;;;;5092999;28;20102;-61
2024/01/06 09:50:37;;;;;;;22.58;10.65;;;;;;;;;;5092808;28;20406;-63
2024/01/06 09:53:05;;;;;;;20.25;10.25;;;;;;;;;;5075925;28;20063;-62
2024/01/06 09:55:31;;;;;;;27.10;11.95;;;;;;;;;;5094337;28;20046;-63
2024/01/06 09:57:57;;;;;;;23.02;11.15;;;;;;;;;;5094030;28;20111;-61
2024/01/06 10:00:22;;;;;;;31.35;12.13;;;;;;;;;;5094377;28;20036;-64
2024/01/06 10:02:49;;;;;;;17.80;9.80;;;;;;;;;;5094015;28;20089;-63
2024/01/06 10:05:16;;;;;;;21.20;11.45;;;;;;;;;;5093864;28;20596;-62
2024/01/06 10:07:43;;;;;;;20.00;10.27;;;;;;;;;;5093788;28;20104;-62
2024/01/06 10:10:10;;;;;;;20.38;11.95;;;;;;;;;;5092826;28;20039;-62
2024/01/06 10:12:40;;;;;;;22.75;11.10;;;;;;;;;;5092848;28;20055;-64
2024/01/06 10:15:09;;;;;;;27.90;11.90;;;;;;;;;;5092673;28;20036;-62
2024/01/06 10:17:41;;;;;;;27.07;12.27;;;;;;;;;;5094064;28;20575;-63
2024/01/06 10:20:10;;;;;;;22.48;11.32;;;;;;;;;;5092490;28;20122;-62
2024/01/06 10:22:40;;;;;;;33.80;11.93;;;;;;;;;;5093725;28;20512;-62
2024/01/06 10:25:07;;;;;;;24.30;12.38;;;;;;;;;;5093548;28;20520;-62
2024/01/06 10:27:36;;;;;;;31.10;13.52;;;;;;;;;;5093518;28;20044;-63
2024/01/06 10:30:02;;;;;;;31.53;13.13;;;;;;;;;;5091562;28;20083;-62
2024/01/06 10:32:31;;;;;;;23.73;11.40;;;;;;;;;;5093663;28;20296;-63
2024/01/06 10:34:57;;;;;;;20.95;11.95;;;;;;;;;;5092931;28;20024;-62
2024/01/06 10:37:24;;;;;;;28.52;12.15;;;;;;;;;;5092086;28;20443;-62
2024/01/06 10:40:04;;;;;;;24.85;11.50;;;;;;;;;;5093416;28;20047;-63
2024/01/06 10:42:30;;;;;;;25.48;12.30;;;;;;;;;;5093439;28;20028;-63
2024/01/06 10:44:56;;;;;;;23.33;11.55;;;;;;;;;;5093422;28;20520;-62
2024/01/06 10:47:22;;;;;;;31.88;14.60;;;;;;;;;;5093031;28;20039;-64
2024/01/06 10:49:48;;;;;;;23.00;12.88;;;;;;;;;;5093467;28;20039;-63
2024/01/06 10:52:14;;;;;;;31.02;14.32;;;;;;;;;;5092931;28;20099;-62
2024/01/06 10:54:40;;;;;;;25.13;14.43;;;;;;;;;;5091801;28;20109;-63
2024/01/06 10:57:06;;;;;;;29.75;13.65;;;;;;;;;;5074698;28;20517;-64
2024/01/06 10:59:32;;;;;;;25.88;12.77;;;;;;;;;;5091550;28;20036;-63
2024/01/06 11:01:58;;;;;;;27.70;12.13;;;;;;;;;;5092464;28;20417;-63
2024/01/06 11:04:24;;;;;;;25.25;11.93;;;;;;;;;;5092935;28;20043;-62
2024/01/06 11:06:50;;;;;;;25.02;13.32;;;;;;;;;;5092985;28;20039;-62
2024/01/06 11:09:19;;;;;;;32.58;13.60;;;;;;;;;;5092795;28;20042;-62
2024/01/06 11:11:45;;;;;;;24.13;13.38;;;;;;;;;;5092855;28;20036;-62
2024/01/06 11:14:17;;;;;;;27.08;13.45;;;;;;;;;;5091460;28;20027;-65
2024/01/06 11:16:43;;;;;;;30.23;14.32;;;;;;;;;;5092463;28;20450;-65
2024/01/06 11:19:29;;;;;;;31.67;14.02;;;;;;;;;;5092302;28;20578;-62
2024/01/06 11:21:54;;;;;;;27.67;13.27;;;;;;;;;;5091857;28;20044;-64
2024/01/06 11:24:20;;;;;;;25.70;13.00;;;;;;;;;;5092491;28;20031;-62
2024/01/06 11:26:50;;;;;;;37.45;14.30;;;;;;;;;;5092229;28;20036;-63
2024/01/06 11:29:15;;;;;;;31.45;14.93;;;;;;;;;;5090995;28;20040;-62
2024/01/06 11:31:41;;;;;;;30.30;14.27;;;;;;;;;;5092393;28;20081;-64
2024/01/06 11:34:15;;;;;;;24.50;12.68;;;;;;;;;;5090976;28;20036;-63
2024/01/06 11:36:42;;;;;;;27.02;13.18;;;;;;;;;;5092694;28;20093;-62
2024/01/06 11:39:28;;;;;;;28.13;14.00;;;;;;;;;;5092356;28;20118;-62
2024/01/06 11:41:54;;;;;;;24.35;13.90;;;;;;;;;;5091866;28;20451;-62
2024/01/06 11:44:22;;;;;;;31.10;13.95;;;;;;;;;;5092250;28;20031;-63
2024/01/06 11:46:49;;;;;;;33.65;14.82;;;;;;;;;;5092272;28;20048;-63
2024/01/06 11:49:15;;;;;;;29.88;13.85;;;;;;;;;;5090825;28;20028;-62
2024/01/06 11:51:41;;;;;;;33.55;14.10;;;;;;;;;;5091938;28;20093;-61
2024/01/06 11:54:08;;;;;;;22.90;13.93;;;;;;;;;;5090461;28;20505;-62
2024/01/06 11:56:34;;;;;;;25.67;14.73;;;;;;;;;;5090597;28;20059;-62
2024/01/06 11:59:00;;;;;;;35.05;16.58;;;;;;;;;;5090708;28;20485;-63
2024/01/06 12:01:26;;;;;;;34.45;14.93;;;;;;;;;;5091642;28;20039;-64
2024/01/06 12:03:54;;;;;;;29.98;14.27;;;;;;;;;;5091762;28;20116;-63
2024/01/06 12:06:23;;;;;;;28.63;14.55;;;;;;;;;;5073823;28;20040;-62
2024/01/06 12:08:50;;;;;;;23.50;14.77;;;;;;;;;;5090388;28;20032;-63
2024/01/06 12:11:18;;;;;;;29.55;14.35;;;;;;;;;;5091539;28;20364;-63
2024/01/06 12:13:44;;;;;;;36.25;14.10;;;;;;;;;;5090154;28;20051;-61
2024/01/06 12:16:09;;;;;;;32.58;15.07;;;;;;;;;;5091592;28;20036;-63
2024/01/06 12:18:35;;;;;;;27.65;13.98;;;;;;;;;;5091225;28;20062;-62
2024/01/06 12:21:01;;;;;;;30.38;15.40;;;;;;;;;;5090423;28;20123;-63
2024/01/06 12:23:27;;;;;;;31.13;15.38;;;;;;;;;;5091520;28;20042;-61
2024/01/06 12:25:56;;;;;;;26.35;14.25;;;;;;;;;;5073346;28;20040;-62
2024/01/06 12:28:21;;;;;;;27.77;15.60;;;;;;;;;;5090186;28;20032;-62
2024/01/06 12:30:47;;;;;;;21.50;12.48;;;;;;;;;;5091510;28;20081;-63
2024/01/06 12:33:14;;;;;;;41.60;19.50;;;;;;;;;;5091269;28;20386;-62
2024/01/06 12:35:41;;;;;;;26.15;13.57;;;;;;;;;;5091373;28;20467;-63
2024/01/06 12:38:08;;;;;;;28.50;15.43;;;;;;;;;;5091366;28;20082;-62
2024/01/06 12:40:35;;;;;;;29.55;15.27;;;;;;;;;;5090449;28;20032;-62
2024/01/06 12:43:01;;;;;;;29.85;14.55;;;;;;;;;;5089900;28;20036;-62
2024/01/06 12:45:27;;;;;;;31.58;14.57;;;;;;;;;;5090391;28;20128;-62
2024/01/06 12:47:54;;;;;;;32.63;14.82;;;;;;;;;;5091243;28;20066;-61
2024/01/06 12:50:19;;;;;;;27.85;14.38;;;;;;;;;;5091498;28;20089;-63
2024/01/06 12:52:45;;;;;;;38.85;17.50;;;;;;;;;;5092934;28;20067;-61
2024/01/06 12:55:12;;;;;;;28.92;16.35;;;;;;;;;;5095403;28;20460;-63
2024/01/06 12:57:37;;;;;;;34.47;15.68;;;;;;;;;;5095560;28;20028;-62
2024/01/06 13:00:05;;;;;;;30.05;15.18;;;;;;;;;;5095355;28;20048;-63
2024/01/06 13:02:31;;;;;;;32.70;15.52;;;;;;;;;;5095419;28;20067;-61
2024/01/06 13:04:57;;;;;;;32.58;13.90;;;;;;;;;;5093995;28;20059;-62
2024/01/06 13:07:23;;;;;;;26.85;13.35;;;;;;;;;;5095348;28;20126;-60
2024/01/06 13:09:50;;;;;;;33.38;14.18;;;;;;;;;;5093902;28;20061;-62
2024/01/06 13:12:18;;;;;;;29.80;13.77;;;;;;;;;;5094988;28;20104;-62
2024/01/06 13:14:47;;;;;;;24.55;12.77;;;;;;;;;;5095344;28;20385;-63
2024/01/06 13:17:14;;;;;;;34.17;14.07;;;;;;;;;;5095081;28;20550;-63
2024/01/06 13:19:39;;;;;;;32.20;14.15;;;;;;;;;;5093544;28;20152;-62
2024/01/06 13:22:05;;;;;;;26.60;13.65;;;;;;;;;;5094921;28;20513;-63
2024/01/06 13:24:31;;;;;;;22.55;13.20;;;;;;;;;;5095110;28;20032;-64
2024/01/06 13:26:58;;;;;;;26.20;13.75;;;;;;;;;;5095074;28;20031;-63
2024/01/06 13:29:24;;;;;;;28.55;12.68;;;;;;;;;;5076723;28;20054;-61
2024/01/06 13:31:50;;;;;;;24.45;11.05;;;;;;;;;;5094870;28;20044;-64
2024/01/06 13:34:15;;;;;;;26.42;12.93;;;;;;;;;;5094843;28;20036;-62
2024/01/06 13:36:41;;;;;;;23.00;12.05;;;;;;;;;;5093249;28;20172;-62
2024/01/06 13:39:07;;;;;;;30.42;13.73;;;;;;;;;;5094281;28;20405;-62
2024/01/06 13:41:32;;;;;;;27.08;12.25;;;;;;;;;;5093450;28;20418;-63
2024/01/06 13:43:58;;;;;;;28.63;14.73;;;;;;;;;;5094686;28;20116;-62
2024/01/06 13:46:24;;;;;;;27.42;12.95;;;;;;;;;;5094312;28;20034;-62
2024/01/06 13:48:50;;;;;;;25.98;12.27;;;;;;;;;;5094577;28;20031;-63
2024/01/06 13:51:16;;;;;;;23.67;12.02;;;;;;;;;;5092967;28;20577;-64
2024/01/06 13:53:42;;;;;;;30.63;13.38;;;;;;;;;;5093951;28;20062;-61
2024/01/06 13:56:07;;;;;;;30.38;13.93;;;;;;;;;;5092897;28;20043;-62
2024/01/06 13:58:35;;;;;;;28.75;14.20;;;;;;;;;;5092482;28;20036;-63
2024/01/06 14:01:01;;;;;;;26.42;14.27;;;;;;;;;;5093867;28;20505;-64
2024/01/06 14:03:26;;;;;;;32.72;15.15;;;;;;;;;;5092253;28;20051;-63
2024/01/06 14:05:53;;;;;;;25.30;13.15;;;;;;;;;;5092186;28;20032;-63
2024/01/06 14:08:19;;;;;;;27.38;12.93;;;;;;;;;;5093917;28;20089;-63
2024/01/06 14:10:44;;;;;;;26.73;13.50;;;;;;;;;;5094272;28;20073;-64
2024/01/06 14:13:11;;;;;;;30.05;14.13;;;;;;;;;;5093784;28;20044;-61
2024/01/06 14:15:36;;;;;;;29.33;13.60;;;;;;;;;;5093882;28;20043;-62
2024/01/06 14:18:03;;;;;;;29.52;14.68;;;;;;;;;;5093912;28;20062;-63
2024/01/06 14:20:29;;;;;;;37.28;14.77;;;;;;;;;;5093921;28;20028;-63
2024/01/06 14:22:54;;;;;;;27.00;13.55;;;;;;;;;;5093737;28;20039;-63